createdAt,value
2023-04-28T00:02:31.566Z,5.80
2023-04-28T00:05:18.487Z,5.47
2023-04-28T00:08:05.259Z,5.70
2023-04-28T00:10:51.405Z,5.83
2023-04-28T00:13:38.251Z,6.77
2023-04-28T00:16:24.612Z,8.03
2023-04-28T00:19:11.201Z,8.77
2023-04-28T00:21:57.675Z,8.10
2023-04-28T00:24:43.909Z,9.40
2023-04-28T00:27:30.339Z,7.33
2023-04-28T00:30:17.138Z,7.00
2023-04-28T00:33:03.633Z,9.70
2023-04-28T00:35:50.384Z,11.60
2023-04-28T00:38:36.808Z,7.50
2023-04-28T00:41:22.956Z,8.80
2023-04-28T00:44:09.409Z,8.00
2023-04-28T00:46:56.688Z,8.13
2023-04-28T00:49:43.311Z,8.70
2023-04-28T00:52:29.878Z,6.87
2023-04-28T00:55:16.895Z,11.13
2023-04-28T00:58:03.338Z,11.50
2023-04-28T01:00:49.705Z,11.10
2023-04-28T01:03:39.840Z,6.90
2023-04-28T01:06:28.641Z,12.53
2023-04-28T01:09:17.742Z,12.43
2023-04-28T01:12:04.474Z,8.53
2023-04-28T01:15:10.757Z,6.87
2023-04-28T01:17:58.427Z,12.23
2023-04-28T01:20:45.166Z,8.83
2023-04-28T01:23:32.127Z,9.70
2023-04-28T01:26:18.541Z,7.87
2023-04-28T01:29:04.725Z,8.37
2023-04-28T01:31:51.033Z,7.90
2023-04-28T01:34:38.757Z,10.93
2023-04-28T01:37:26.427Z,11.13
2023-04-28T01:40:13.792Z,9.87
2023-04-28T01:43:00.598Z,7.50
2023-04-28T01:45:49.824Z,8.57
2023-04-28T01:48:36.207Z,8.40
2023-04-28T01:51:22.636Z,9.87
2023-04-28T01:54:09.041Z,7.97
2023-04-28T01:56:55.499Z,10.07
2023-04-28T01:59:42.604Z,11.90
2023-04-28T02:02:29.514Z,11.10
2023-04-28T02:05:16.882Z,7.70
2023-04-28T02:08:03.086Z,9.50
2023-04-28T02:10:49.799Z,8.67
2023-04-28T02:13:36.719Z,9.97
2023-04-28T02:16:23.113Z,14.67
2023-04-28T02:19:10.483Z,9.63
2023-04-28T02:21:56.644Z,10.23
2023-04-28T02:24:43.250Z,9.67
2023-04-28T02:27:29.742Z,8.00
2023-04-28T02:30:16.297Z,8.90
2023-04-28T02:33:02.831Z,9.93
2023-04-28T02:35:58.852Z,10.10
2023-04-28T02:38:45.331Z,8.87
2023-04-28T02:41:34.468Z,10.70
2023-04-28T02:44:21.399Z,10.57
2023-04-28T02:47:08.000Z,9.20
2023-04-28T02:49:54.397Z,11.80
2023-04-28T02:52:41.461Z,10.07
2023-04-28T02:55:28.004Z,8.10
2023-04-28T02:58:15.291Z,10.40
2023-04-28T03:01:02.034Z,9.50
2023-04-28T03:03:48.557Z,9.83
2023-04-28T03:06:35.303Z,8.60
2023-04-28T03:09:22.017Z,10.03
2023-04-28T03:12:08.411Z,10.43
2023-04-28T03:14:55.129Z,9.47
2023-04-28T03:17:43.147Z,8.37
2023-04-28T03:20:29.971Z,7.00
2023-04-28T03:23:16.519Z,9.53
2023-04-28T03:26:03.188Z,10.13
2023-04-28T03:28:49.549Z,8.33
2023-04-28T03:31:37.142Z,10.80
2023-04-28T03:34:23.849Z,11.97
2023-04-28T03:37:10.210Z,9.00
2023-04-28T03:39:56.514Z,9.90
2023-04-28T03:42:43.001Z,11.23
2023-04-28T03:45:32.589Z,8.07
2023-04-28T03:48:19.330Z,10.90
2023-04-28T03:51:06.003Z,7.23
2023-04-28T03:53:52.223Z,7.07
2023-04-28T03:56:39.094Z,8.30
2023-04-28T03:59:25.294Z,11.77
2023-04-28T04:02:11.721Z,9.03
2023-04-28T04:04:58.860Z,6.43
2023-04-28T04:07:45.623Z,9.70
2023-04-28T04:10:32.670Z,11.60
2023-04-28T04:13:19.271Z,8.23
2023-04-28T04:16:06.729Z,9.97
2023-04-28T04:18:53.082Z,11.40
2023-04-28T04:21:42.531Z,7.50
2023-04-28T04:24:29.154Z,11.47
2023-04-28T04:27:15.666Z,8.90
2023-04-28T04:30:02.065Z,10.47
2023-04-28T04:32:48.487Z,15.23
2023-04-28T04:35:35.219Z,8.40
2023-04-28T04:38:21.753Z,8.97
2023-04-28T04:41:08.463Z,10.60
2023-04-28T04:43:54.950Z,9.50
2023-04-28T04:46:48.364Z,10.30
2023-04-28T04:49:38.130Z,9.47
2023-04-28T04:52:25.009Z,10.07
2023-04-28T04:55:11.539Z,8.87
2023-04-28T04:58:00.291Z,9.90
2023-04-28T05:01:05.816Z,10.97
2023-04-28T05:03:52.267Z,9.70
2023-04-28T05:06:40.619Z,9.30
2023-04-28T05:09:27.314Z,7.57
2023-04-28T05:12:13.410Z,9.90
2023-04-28T05:14:59.858Z,11.17
2023-04-28T05:17:46.336Z,10.40
2023-04-28T05:20:32.612Z,9.13
2023-04-28T05:23:19.105Z,8.27
2023-04-28T05:26:06.425Z,10.70
2023-04-28T05:28:52.940Z,7.70
2023-04-28T05:31:39.360Z,7.87
2023-04-28T05:34:25.961Z,6.67
2023-04-28T05:37:12.325Z,7.87
2023-04-28T05:40:00.606Z,9.23
2023-04-28T05:42:47.212Z,8.30
2023-04-28T05:45:33.698Z,11.93
2023-04-28T05:48:20.473Z,11.13
2023-04-28T05:51:07.055Z,9.40
2023-04-28T05:53:53.515Z,7.20
2023-04-28T05:56:40.546Z,6.90
2023-04-28T05:59:30.578Z,8.03
2023-04-28T06:02:17.481Z,10.20
2023-04-28T06:05:08.061Z,9.50
2023-04-28T06:07:56.153Z,8.50
2023-04-28T06:10:42.885Z,9.63
2023-04-28T06:13:29.541Z,8.77
2023-04-28T06:16:17.081Z,9.00
2023-04-28T06:19:04.012Z,13.13
2023-04-28T06:21:51.582Z,8.93
2023-04-28T06:24:37.908Z,9.83
2023-04-28T06:27:28.768Z,9.03
2023-04-28T06:30:23.225Z,11.37
2023-04-28T06:33:09.660Z,9.20
2023-04-28T06:35:56.672Z,10.67
2023-04-28T06:38:46.163Z,11.20
2023-04-28T06:41:32.627Z,9.63
2023-04-28T06:44:20.937Z,10.90
2023-04-28T06:47:08.614Z,11.97
2023-04-28T06:49:58.124Z,9.97
2023-04-28T06:52:44.615Z,10.93
2023-04-28T06:55:31.613Z,12.77
2023-04-28T06:58:18.802Z,10.77
2023-04-28T07:01:05.800Z,12.17
2023-04-28T07:03:52.443Z,10.43
2023-04-28T07:06:39.132Z,8.67
2023-04-28T07:09:25.913Z,10.47
2023-04-28T07:12:12.538Z,9.07
2023-04-28T07:14:59.090Z,12.77
2023-04-28T07:17:45.779Z,10.47
2023-04-28T07:20:32.321Z,9.93
2023-04-28T07:23:18.622Z,11.03
2023-04-28T07:26:05.036Z,10.47
2023-04-28T07:28:51.956Z,9.30
2023-04-28T07:31:38.322Z,11.90
2023-04-28T07:34:24.862Z,9.27
2023-04-28T07:37:12.044Z,6.57
2023-04-28T07:39:58.778Z,8.80
2023-04-28T07:42:45.880Z,8.03
2023-04-28T07:45:32.487Z,9.57
2023-04-28T07:48:19.298Z,9.77
2023-04-28T07:51:06.063Z,9.37
2023-04-28T07:53:52.774Z,9.77
2023-04-28T07:56:39.222Z,12.40
2023-04-28T07:59:25.598Z,10.37
2023-04-28T08:02:13.555Z,14.10
2023-04-28T08:05:00.136Z,13.60
2023-04-28T08:07:46.928Z,10.00
2023-04-28T08:10:33.230Z,10.37
2023-04-28T08:13:19.715Z,8.70
2023-04-28T08:16:06.889Z,9.07
2023-04-28T08:18:53.339Z,9.73
2023-04-28T08:21:40.047Z,7.43
2023-04-28T08:24:30.178Z,8.53
2023-04-28T08:27:16.489Z,7.10
2023-04-28T08:30:02.970Z,7.53
2023-04-28T08:32:51.690Z,6.47
2023-04-28T08:35:38.366Z,8.23
2023-04-28T08:38:25.489Z,6.23
2023-04-28T08:41:15.150Z,7.43
2023-04-28T08:44:01.906Z,7.53
2023-04-28T08:46:50.046Z,6.07
2023-04-28T08:49:37.172Z,5.93
2023-04-28T08:52:25.780Z,9.63
2023-04-28T08:55:13.563Z,4.87
2023-04-28T08:58:02.716Z,8.10
2023-04-28T09:00:49.397Z,5.23
2023-04-28T09:03:35.678Z,4.50
2023-04-28T09:06:23.019Z,5.10
2023-04-28T09:09:22.643Z,3.83
2023-04-28T09:12:09.245Z,4.53
2023-04-28T09:14:58.661Z,6.27
2023-04-28T09:17:52.472Z,8.83
2023-04-28T09:20:38.873Z,5.73
2023-04-28T09:23:25.560Z,5.90
2023-04-28T09:26:12.072Z,4.53
2023-04-28T09:29:13.088Z,4.83
2023-04-28T09:32:17.357Z,5.00
2023-04-28T09:35:04.996Z,5.37
2023-04-28T09:37:58.669Z,4.33
2023-04-28T09:41:01.296Z,4.37
2023-04-28T09:43:47.917Z,3.37
2023-04-28T09:46:34.168Z,3.63
2023-04-28T09:49:20.773Z,3.70
2023-04-28T09:52:13.982Z,2.90
2023-04-28T09:55:05.592Z,3.40
2023-04-28T09:57:54.792Z,3.57
2023-04-28T10:00:41.611Z,3.83
2023-04-28T10:03:30.620Z,3.90
2023-04-28T10:06:17.391Z,4.27
2023-04-28T10:09:03.773Z,2.63
2023-04-28T10:11:50.195Z,2.63
2023-04-28T10:14:37.621Z,3.73
2023-04-28T10:17:29.513Z,3.47
2023-04-28T10:20:16.662Z,3.23
2023-04-28T10:23:31.350Z,3.20
2023-04-28T10:26:20.138Z,3.47
2023-04-28T10:29:08.259Z,3.90
2023-04-28T10:32:25.931Z,3.97
2023-04-28T10:35:21.386Z,2.97
2023-04-28T10:38:17.855Z,3.53
2023-04-28T10:41:04.563Z,2.77
2023-04-28T10:43:50.896Z,2.00
2023-04-28T10:47:06.891Z,2.83
2023-04-28T10:49:57.609Z,7.70
2023-04-28T10:52:46.946Z,3.57
2023-04-28T10:55:39.994Z,4.10
2023-04-28T10:58:26.306Z,2.73
2023-04-28T11:01:22.091Z,5.07
2023-04-28T11:04:14.086Z,8.83
2023-04-28T11:07:13.371Z,3.83
2023-04-28T11:09:59.522Z,1.60
2023-04-28T11:13:23.288Z,1.07
2023-04-28T11:16:09.962Z,1.50
2023-04-28T11:19:04.793Z,1.57
2023-04-28T11:21:53.629Z,3.03
2023-04-28T11:24:40.033Z,1.13
2023-04-28T11:27:28.016Z,1.57
2023-04-28T11:30:22.704Z,1.90
2023-04-28T11:33:09.864Z,1.37
2023-04-28T11:35:56.537Z,1.20
2023-04-28T11:38:44.408Z,0.80
2023-04-28T11:41:32.250Z,1.27
2023-04-28T11:44:21.535Z,1.20
2023-04-28T11:47:08.015Z,1.17
2023-04-28T11:49:54.607Z,1.77
2023-04-28T11:52:53.432Z,1.20
2023-04-28T11:55:40.552Z,2.03
2023-04-28T11:58:27.872Z,1.00
2023-04-28T12:01:15.728Z,1.00
2023-04-28T12:04:02.277Z,2.27
2023-04-28T12:07:18.572Z,1.50
2023-04-28T12:10:17.224Z,1.70
2023-04-28T12:13:31.193Z,1.90
2023-04-28T12:16:38.962Z,2.30
2023-04-28T12:19:25.601Z,4.73
2023-04-28T12:22:12.400Z,1.70
2023-04-28T12:25:07.952Z,2.50
2023-04-28T12:28:04.772Z,2.27
2023-04-28T12:31:04.048Z,1.93
2023-04-28T12:33:50.685Z,2.17
2023-04-28T12:36:37.196Z,1.90
2023-04-28T12:39:24.665Z,1.60
2023-04-28T12:42:11.759Z,3.07
2023-04-28T12:44:58.656Z,4.33
2023-04-28T12:47:45.328Z,5.37
2023-04-28T12:50:33.120Z,2.80
2023-04-28T12:53:19.549Z,2.23
2023-04-28T12:56:06.289Z,2.50
2023-04-28T12:58:53.073Z,1.50
2023-04-28T13:01:39.761Z,1.73
2023-04-28T13:04:26.856Z,3.53
2023-04-28T13:07:15.052Z,1.97
2023-04-28T13:10:01.442Z,1.27
2023-04-28T13:12:48.191Z,2.27
2023-04-28T13:15:35.813Z,3.63
2023-04-28T13:18:24.347Z,4.53
2023-04-28T13:21:11.687Z,4.37
2023-04-28T13:23:58.641Z,2.13
2023-04-28T13:26:45.399Z,2.40
2023-04-28T13:29:31.903Z,2.13
2023-04-28T13:32:18.502Z,1.60
2023-04-28T13:35:05.625Z,1.60
2023-04-28T13:37:55.971Z,1.70
2023-04-28T13:40:43.035Z,3.10
2023-04-28T13:43:31.124Z,1.60
2023-04-28T13:46:17.928Z,3.37
2023-04-28T13:49:04.857Z,2.37
2023-04-28T13:51:51.459Z,1.87
2023-04-28T13:54:37.889Z,2.70
2023-04-28T13:57:24.373Z,2.83
2023-04-28T14:00:11.537Z,5.07
2023-04-28T14:02:58.558Z,1.13
2023-04-28T14:05:49.332Z,1.10
2023-04-28T14:08:36.753Z,1.17
2023-04-28T14:11:23.204Z,1.60
2023-04-28T14:14:09.780Z,1.00
2023-04-28T14:16:56.273Z,2.27
2023-04-28T14:19:44.396Z,1.63
2023-04-28T14:22:30.945Z,0.80
2023-04-28T14:25:18.757Z,0.60
2023-04-28T14:28:05.303Z,0.97
2023-04-28T14:30:53.898Z,1.50
2023-04-28T14:33:40.829Z,0.97
2023-04-28T14:36:27.517Z,0.40
2023-04-28T14:39:14.131Z,0.60
2023-04-28T14:42:00.681Z,1.37
2023-04-28T14:44:47.819Z,0.67
2023-04-28T14:47:35.886Z,1.33
2023-04-28T14:50:22.678Z,0.70
2023-04-28T14:53:09.164Z,1.63
2023-04-28T14:56:04.521Z,2.07
2023-04-28T14:58:57.310Z,0.73
2023-04-28T15:01:44.205Z,1.60
2023-04-28T15:04:31.100Z,1.77
2023-04-28T15:07:18.222Z,1.67
2023-04-28T15:10:04.964Z,1.50
2023-04-28T15:12:51.506Z,1.03
2023-04-28T15:15:37.851Z,2.00
2023-04-28T15:18:24.586Z,0.50
2023-04-28T15:21:12.062Z,0.40
2023-04-28T15:24:01.251Z,1.30
2023-04-28T15:26:48.090Z,0.93
2023-04-28T15:29:34.723Z,0.43
2023-04-28T15:32:21.561Z,0.73
2023-04-28T15:35:08.160Z,0.30
2023-04-28T15:37:55.831Z,0.53
2023-04-28T15:40:43.661Z,0.50
2023-04-28T15:43:30.030Z,0.50
2023-04-28T15:46:17.899Z,0.50
2023-04-28T15:49:04.634Z,0.53
2023-04-28T15:51:51.197Z,0.60
2023-04-28T15:54:39.540Z,0.70
2023-04-28T15:57:26.133Z,1.70
2023-04-28T16:00:14.896Z,0.70
2023-04-28T16:03:01.708Z,0.93
2023-04-28T16:05:48.210Z,1.07
2023-04-28T16:08:35.842Z,2.77
2023-04-28T16:11:22.630Z,1.53
2023-04-28T16:14:08.824Z,1.13
2023-04-28T16:16:55.795Z,1.10
2023-04-28T16:19:42.515Z,0.80
2023-04-28T16:22:29.753Z,0.83
2023-04-28T16:25:16.360Z,2.40
2023-04-28T16:28:03.097Z,1.83
2023-04-28T16:30:49.690Z,5.90
2023-04-28T16:33:36.218Z,2.47
2023-04-28T16:36:22.861Z,3.23
2023-04-28T16:39:10.034Z,1.60
2023-04-28T16:41:57.434Z,3.87
2023-04-28T16:44:43.798Z,1.37
2023-04-28T16:47:31.272Z,0.80
2023-04-28T16:50:18.167Z,0.87
2023-04-28T16:53:04.550Z,0.97
2023-04-28T16:55:50.976Z,1.73
2023-04-28T16:58:37.298Z,2.27
2023-04-28T17:01:24.329Z,2.73
2023-04-28T17:04:11.726Z,1.80
2023-04-28T17:06:58.797Z,5.73
2023-04-28T17:09:45.085Z,2.13
2023-04-28T17:12:31.802Z,2.83
2023-04-28T17:15:18.548Z,2.00
2023-04-28T17:18:05.087Z,2.77
2023-04-28T17:20:52.269Z,3.83
2023-04-28T17:23:39.293Z,2.73
2023-04-28T17:26:27.738Z,3.33
2023-04-28T17:29:14.172Z,5.10
2023-04-28T17:32:00.445Z,5.47
2023-04-28T17:34:47.411Z,1.67
2023-04-28T17:37:35.036Z,2.27
2023-04-28T17:40:25.633Z,1.20
2023-04-28T17:43:12.070Z,1.40
2023-04-28T17:45:58.486Z,1.20
2023-04-28T17:48:45.405Z,1.47
2023-04-28T17:51:32.482Z,1.63
2023-04-28T17:54:19.184Z,1.30
2023-04-28T17:57:05.904Z,1.63
2023-04-28T18:04:26.310Z,15.37
2023-04-28T18:07:12.860Z,9.23
2023-04-28T18:09:59.088Z,1.87
2023-04-28T18:12:46.295Z,4.90
2023-04-28T18:15:32.567Z,4.20
2023-04-28T18:18:19.669Z,3.00
2023-04-28T18:21:06.288Z,2.43
2023-04-28T18:23:52.685Z,3.40
2023-04-28T18:26:38.893Z,3.43
2023-04-28T18:29:25.728Z,2.50
2023-04-28T18:32:14.522Z,2.57
2023-04-28T18:35:01.486Z,2.50
2023-04-28T18:37:48.351Z,4.77
2023-04-28T18:40:38.576Z,4.20
2023-04-28T18:43:25.907Z,5.50
2023-04-28T18:46:12.201Z,3.97
2023-04-28T18:48:58.788Z,3.93
2023-04-28T18:51:45.402Z,2.90
2023-04-28T18:54:31.709Z,4.87
2023-04-28T18:57:19.191Z,6.43
2023-04-28T19:00:06.284Z,5.50
2023-04-28T19:02:52.784Z,4.63
2023-04-28T19:05:43.179Z,3.50
2023-04-28T19:08:29.822Z,3.23
2023-04-28T19:11:16.416Z,4.03
2023-04-28T19:14:02.999Z,4.10
2023-04-28T19:16:50.048Z,8.93
2023-04-28T19:19:36.388Z,3.67
2023-04-28T19:22:36.750Z,2.50
2023-04-28T19:25:23.382Z,4.67
2023-04-28T19:28:11.589Z,3.90
2023-04-28T19:30:58.451Z,3.37
2023-04-28T19:33:45.164Z,3.73
2023-04-28T19:36:32.787Z,3.90
2023-04-28T19:39:19.148Z,4.83
2023-04-28T19:42:05.751Z,6.40
2023-04-28T19:44:57.018Z,5.70
2023-04-28T19:47:43.693Z,5.17
2023-04-28T19:50:31.070Z,6.07
2023-04-28T19:53:19.208Z,5.77
2023-04-28T19:56:07.584Z,4.60
2023-04-28T19:58:54.477Z,6.23
2023-04-28T20:01:43.379Z,7.23
2023-04-28T20:04:30.710Z,6.20
2023-04-28T20:07:17.487Z,5.80
2023-04-28T20:10:04.500Z,4.40
2023-04-28T20:12:51.191Z,4.17
2023-04-28T20:15:37.789Z,4.33
2023-04-28T20:18:24.153Z,3.93
2023-04-28T20:21:10.652Z,6.10
2023-04-28T20:23:57.100Z,4.00
2023-04-28T20:26:43.486Z,7.00
2023-04-28T20:29:34.349Z,5.47
2023-04-28T20:32:21.106Z,5.37
2023-04-28T20:35:07.951Z,9.63
2023-04-28T20:37:54.382Z,8.90
2023-04-28T20:40:41.058Z,9.57
2023-04-28T20:43:28.011Z,7.43
2023-04-28T20:46:15.811Z,8.00
2023-04-28T20:49:04.170Z,6.63
2023-04-28T20:51:50.589Z,8.33
2023-04-28T20:54:36.844Z,7.23
2023-04-28T20:57:23.058Z,8.47
2023-04-28T21:00:11.321Z,11.40
2023-04-28T21:02:57.795Z,6.33
2023-04-28T21:05:46.380Z,8.23
2023-04-28T21:08:33.527Z,6.23
2023-04-28T21:11:19.774Z,6.27
2023-04-28T21:14:05.961Z,5.20
2023-04-28T21:16:52.271Z,5.03
2023-04-28T21:19:38.944Z,6.13
2023-04-28T21:22:26.095Z,6.57
2023-04-28T21:25:12.883Z,5.43
2023-04-28T21:28:01.506Z,8.43
2023-04-28T21:30:52.167Z,6.53
2023-04-28T21:33:38.793Z,7.53
2023-04-28T21:36:25.098Z,5.67
2023-04-28T21:39:11.574Z,6.73
2023-04-28T21:41:57.773Z,6.37
2023-04-28T21:44:43.976Z,10.83
2023-04-28T21:47:30.553Z,7.53
2023-04-28T21:50:17.316Z,8.73
2023-04-28T21:53:04.012Z,7.83
2023-04-28T21:55:50.777Z,7.70
2023-04-28T21:58:37.338Z,12.10
2023-04-28T22:01:23.626Z,8.03
2023-04-28T22:04:10.904Z,8.10
2023-04-28T22:06:57.594Z,7.20
2023-04-28T22:09:44.248Z,7.67
2023-04-28T22:12:30.851Z,8.50
2023-04-28T22:15:17.577Z,9.73
2023-04-28T22:18:04.160Z,9.63
2023-04-28T22:20:50.912Z,9.57
2023-04-28T22:23:37.422Z,9.20
2023-04-28T22:26:24.336Z,8.70
2023-04-28T22:29:11.172Z,7.73
2023-04-28T22:31:58.686Z,9.07
2023-04-28T22:34:44.999Z,8.23
2023-04-28T22:37:31.674Z,7.73
2023-04-28T22:40:18.446Z,10.67
2023-04-28T22:43:04.807Z,6.80
2023-04-28T22:45:52.513Z,6.07
2023-04-28T22:48:38.814Z,6.40
2023-04-28T22:51:25.478Z,5.20
2023-04-28T22:54:11.800Z,6.57
2023-04-28T22:56:59.310Z,7.93
2023-04-28T22:59:45.607Z,5.97
2023-04-28T23:02:32.778Z,6.20
2023-04-28T23:05:19.637Z,6.53
2023-04-28T23:08:06.226Z,10.63
2023-04-28T23:10:55.650Z,7.73
2023-04-28T23:13:41.922Z,7.47
2023-04-28T23:16:28.440Z,9.73
2023-04-28T23:19:15.212Z,7.53
2023-04-28T23:22:01.908Z,7.37
2023-04-28T23:24:48.244Z,8.07
2023-04-28T23:27:35.018Z,5.70
2023-04-28T23:30:21.637Z,6.93
2023-04-28T23:33:08.065Z,6.77
2023-04-28T23:35:54.757Z,4.77
2023-04-28T23:38:41.742Z,6.40
2023-04-28T23:41:28.545Z,6.00
2023-04-28T23:44:15.213Z,5.53
2023-04-28T23:47:01.700Z,8.27
2023-04-28T23:49:48.557Z,4.43
2023-04-28T23:52:36.553Z,4.10
2023-04-28T23:55:22.922Z,3.87
2023-04-28T23:58:09.520Z,4.77
